createdAt,value
2023-04-17T00:00:35.068Z,24.05
2023-04-17T00:01:35.074Z,24.05
2023-04-17T00:02:35.203Z,24.05
2023-04-17T00:03:35.166Z,24.09
2023-04-17T00:04:35.329Z,24.05
2023-04-17T00:05:35.119Z,24.08
2023-04-17T00:06:35.085Z,24.09
2023-04-17T00:07:35.120Z,24.06
2023-04-17T00:08:35.100Z,24.06
2023-04-17T00:09:35.102Z,24.05
2023-04-17T00:10:35.181Z,24.02
2023-04-17T00:11:35.158Z,24.01
2023-04-17T00:12:35.168Z,24.05
2023-04-17T00:13:35.161Z,24.03
2023-04-17T00:14:35.187Z,24.02
2023-04-17T00:15:35.194Z,23.94
2023-04-17T00:16:35.241Z,23.99
2023-04-17T00:17:35.255Z,23.98
2023-04-17T00:18:35.237Z,23.98
2023-04-17T00:19:35.312Z,23.94
2023-04-17T00:20:35.361Z,23.94
2023-04-17T00:21:35.408Z,23.94
2023-04-17T00:22:35.467Z,23.94
2023-04-17T00:23:35.514Z,23.92
2023-04-17T00:24:35.620Z,23.89
2023-04-17T00:25:35.632Z,23.89
2023-04-17T00:26:35.701Z,23.83
2023-04-17T00:27:35.764Z,23.84
2023-04-17T00:28:35.811Z,23.76
2023-04-17T00:29:35.865Z,23.78
2023-04-17T00:30:35.916Z,23.75
2023-04-17T00:31:35.985Z,23.79
2023-04-17T00:32:36.048Z,23.77
2023-04-17T00:33:36.029Z,23.80
2023-04-17T00:34:36.069Z,23.78
2023-04-17T00:35:36.095Z,23.78
2023-04-17T00:36:36.123Z,23.74
2023-04-17T00:37:36.240Z,23.75
2023-04-17T00:38:36.159Z,23.73
2023-04-17T00:39:36.181Z,23.68
2023-04-17T00:40:36.214Z,23.75
2023-04-17T00:41:36.210Z,23.69
2023-04-17T00:42:36.215Z,23.66
2023-04-17T00:43:36.304Z,23.68
2023-04-17T00:44:36.267Z,23.69
2023-04-17T00:45:36.273Z,23.66
2023-04-17T00:46:36.293Z,23.62
2023-04-17T00:47:36.303Z,23.64
2023-04-17T00:48:36.333Z,23.61
2023-04-17T00:49:36.305Z,23.64
2023-04-17T00:50:36.325Z,23.58
2023-04-17T00:51:36.321Z,23.60
2023-04-17T00:52:36.315Z,23.60
2023-04-17T00:53:36.323Z,23.63
2023-04-17T00:54:36.346Z,23.61
2023-04-17T00:55:36.304Z,23.54
2023-04-17T00:56:36.341Z,23.57
2023-04-17T00:57:36.329Z,23.56
2023-04-17T00:58:36.338Z,23.57
2023-04-17T00:59:36.332Z,23.52
2023-04-17T01:00:36.367Z,23.53
2023-04-17T01:01:36.390Z,23.58
2023-04-17T01:02:36.556Z,23.53
2023-04-17T01:03:36.521Z,23.52
2023-04-17T01:04:36.362Z,23.52
2023-04-17T01:05:36.388Z,23.55
2023-04-17T01:06:36.411Z,23.58
2023-04-17T01:07:36.393Z,23.53
2023-04-17T01:08:36.397Z,23.54
2023-04-17T01:09:36.406Z,23.48
2023-04-17T01:10:36.491Z,23.52
2023-04-17T01:11:36.575Z,23.57
2023-04-17T01:12:36.498Z,23.52
2023-04-17T01:13:36.483Z,23.51
2023-04-17T01:14:36.513Z,23.52
2023-04-17T01:15:36.575Z,23.52
2023-04-17T01:16:36.597Z,23.55
2023-04-17T01:17:36.625Z,23.48
2023-04-17T01:18:36.594Z,23.52
2023-04-17T01:19:36.579Z,23.51
2023-04-17T01:20:36.624Z,23.51
2023-04-17T01:21:36.678Z,23.51
2023-04-17T01:22:36.701Z,23.54
2023-04-17T01:23:36.696Z,23.54
2023-04-17T01:24:36.741Z,23.58
2023-04-17T01:25:36.786Z,23.51
2023-04-17T01:26:36.856Z,23.56
2023-04-17T01:27:36.852Z,23.48
2023-04-17T01:28:36.872Z,23.54
2023-04-17T01:29:36.946Z,23.52
2023-04-17T01:30:37.014Z,23.58
2023-04-17T01:31:37.053Z,23.56
2023-04-17T01:32:37.148Z,23.53
2023-04-17T01:33:37.126Z,23.55
2023-04-17T01:34:37.686Z,23.53
2023-04-17T01:35:37.276Z,23.51
2023-04-17T01:36:37.305Z,23.53
2023-04-17T01:37:37.385Z,23.57
2023-04-17T01:38:37.428Z,23.52
2023-04-17T01:39:37.483Z,23.54
2023-04-17T01:40:37.524Z,23.56
2023-04-17T01:41:37.612Z,23.56
2023-04-17T01:42:37.678Z,23.50
2023-04-17T01:43:37.733Z,23.53
2023-04-17T01:44:37.764Z,23.56
2023-04-17T01:45:37.851Z,23.59
2023-04-17T01:46:37.985Z,23.57
2023-04-17T01:47:38.068Z,23.57
2023-04-17T01:48:38.037Z,23.56
2023-04-17T01:49:38.090Z,23.54
2023-04-17T01:50:38.136Z,23.54
2023-04-17T01:51:38.200Z,23.50
2023-04-17T01:52:38.302Z,23.53
2023-04-17T01:53:38.364Z,23.49
2023-04-17T01:54:38.525Z,23.50
2023-04-17T01:55:38.463Z,23.55
2023-04-17T01:56:38.543Z,23.55
2023-04-17T01:57:38.608Z,23.52
2023-04-17T01:58:38.656Z,23.45
2023-04-17T01:59:38.726Z,23.52
2023-04-17T02:00:38.780Z,23.53
2023-04-17T02:01:38.871Z,23.50
2023-04-17T02:02:39.104Z,23.54
2023-04-17T02:03:39.142Z,23.52
2023-04-17T02:04:39.027Z,23.59
2023-04-17T02:05:39.038Z,23.59
2023-04-17T02:06:39.146Z,23.59
2023-04-17T02:07:39.158Z,23.59
2023-04-17T02:08:39.232Z,23.53
2023-04-17T02:09:39.245Z,23.57
2023-04-17T02:10:39.302Z,23.59
2023-04-17T02:11:39.376Z,23.56
2023-04-17T02:12:39.434Z,23.57
2023-04-17T02:13:39.530Z,23.53
2023-04-17T02:14:39.538Z,23.56
2023-04-17T02:15:39.606Z,23.59
2023-04-17T02:16:39.725Z,23.56
2023-04-17T02:17:39.756Z,23.60
2023-04-17T02:18:39.755Z,23.59
2023-04-17T02:19:39.800Z,23.55
2023-04-17T02:20:39.858Z,23.57
2023-04-17T02:21:39.904Z,23.53
2023-04-17T02:22:39.988Z,23.52
2023-04-17T02:23:40.011Z,23.59
2023-04-17T02:24:40.072Z,23.57
2023-04-17T02:25:40.134Z,23.57
2023-04-17T02:26:40.178Z,23.59
2023-04-17T02:27:40.180Z,23.62
2023-04-17T02:28:40.272Z,23.59
2023-04-17T02:29:40.298Z,23.62
2023-04-17T02:30:40.356Z,23.59
2023-04-17T02:31:40.454Z,23.63
2023-04-17T02:32:40.469Z,23.65
2023-04-17T02:33:40.487Z,23.60
2023-04-17T02:34:40.527Z,23.62
2023-04-17T02:35:40.592Z,23.62
2023-04-17T02:36:40.650Z,23.59
2023-04-17T02:37:40.684Z,23.56
2023-04-17T02:38:40.693Z,23.52
2023-04-17T02:39:40.766Z,23.59
2023-04-17T02:40:40.804Z,23.57
2023-04-17T02:41:40.875Z,23.61
2023-04-17T02:42:40.947Z,23.54
2023-04-17T02:43:40.963Z,23.55
2023-04-17T02:44:41.012Z,23.51
2023-04-17T02:45:41.071Z,23.45
2023-04-17T02:46:41.154Z,23.52
2023-04-17T02:47:41.127Z,23.49
2023-04-17T02:48:41.177Z,23.49
2023-04-17T02:49:41.200Z,23.48
2023-04-17T02:50:41.241Z,23.47
2023-04-17T02:51:41.277Z,23.47
2023-04-17T02:52:41.313Z,23.42
2023-04-17T02:53:41.390Z,23.44
2023-04-17T02:54:41.398Z,23.47
2023-04-17T02:55:41.540Z,23.40
2023-04-17T02:56:41.493Z,23.47
2023-04-17T02:57:41.572Z,23.49
2023-04-17T02:58:41.581Z,23.49
2023-04-17T02:59:41.630Z,23.44
2023-04-17T03:00:41.695Z,23.41
2023-04-17T03:01:41.769Z,23.48
2023-04-17T03:02:41.832Z,23.47
2023-04-17T03:03:42.184Z,23.41
2023-04-17T03:04:41.791Z,23.41
2023-04-17T03:05:41.829Z,23.41
2023-04-17T03:06:41.865Z,23.38
2023-04-17T03:07:41.925Z,23.40
2023-04-17T03:08:41.969Z,23.41
2023-04-17T03:09:42.006Z,23.45
2023-04-17T03:10:42.052Z,23.40
2023-04-17T03:11:42.070Z,23.41
2023-04-17T03:12:42.126Z,23.48
2023-04-17T03:13:42.134Z,23.40
2023-04-17T03:14:42.168Z,23.44
2023-04-17T03:15:42.225Z,23.42
2023-04-17T03:16:42.300Z,23.44
2023-04-17T03:17:42.337Z,23.48
2023-04-17T03:18:42.344Z,23.41
2023-04-17T03:19:42.377Z,23.41
2023-04-17T03:20:42.404Z,23.47
2023-04-17T03:21:42.402Z,23.40
2023-04-17T03:22:42.484Z,23.44
2023-04-17T03:23:42.505Z,23.42
2023-04-17T03:24:42.567Z,23.45
2023-04-17T03:25:42.581Z,23.44
2023-04-17T03:26:42.617Z,23.44
2023-04-17T03:27:42.621Z,23.46
2023-04-17T03:28:42.664Z,23.42
2023-04-17T03:29:42.729Z,23.39
2023-04-17T03:30:42.725Z,23.44
2023-04-17T03:31:42.819Z,23.47
2023-04-17T03:32:42.821Z,23.49
2023-04-17T03:33:42.831Z,23.42
2023-04-17T03:34:42.876Z,23.45
2023-04-17T03:35:42.923Z,23.42
2023-04-17T03:36:42.937Z,23.38
2023-04-17T03:37:42.967Z,23.42
2023-04-17T03:38:42.977Z,23.48
2023-04-17T03:39:43.027Z,23.48
2023-04-17T03:40:43.062Z,23.43
2023-04-17T03:41:43.099Z,23.43
2023-04-17T03:42:43.073Z,23.48
2023-04-17T03:43:43.121Z,23.45
2023-04-17T03:44:43.122Z,23.42
2023-04-17T03:45:43.200Z,23.41
2023-04-17T03:46:43.209Z,23.45
2023-04-17T03:47:43.339Z,23.43
2023-04-17T03:48:43.270Z,23.49
2023-04-17T03:49:43.283Z,23.51
2023-04-17T03:50:43.301Z,23.48
2023-04-17T03:51:43.350Z,23.48
2023-04-17T03:52:43.404Z,23.51
2023-04-17T03:53:43.390Z,23.48
2023-04-17T03:54:43.434Z,23.49
2023-04-17T03:55:43.456Z,23.44
2023-04-17T03:56:44.416Z,23.45
2023-04-17T03:57:43.528Z,23.44
2023-04-17T03:58:43.543Z,23.38
2023-04-17T03:59:43.563Z,23.43
2023-04-17T04:00:43.589Z,23.42
2023-04-17T04:01:46.070Z,23.30
2023-04-17T04:02:43.775Z,23.32
2023-04-17T04:03:43.838Z,23.35
2023-04-17T04:04:43.781Z,23.34
2023-04-17T04:05:43.616Z,23.36
2023-04-17T04:06:43.576Z,23.35
2023-04-17T04:07:43.577Z,23.30
2023-04-17T04:08:43.623Z,23.25
2023-04-17T04:09:43.582Z,23.32
2023-04-17T04:10:43.558Z,23.28
2023-04-17T04:11:43.534Z,23.28
2023-04-17T04:12:43.565Z,23.26
2023-04-17T04:13:43.560Z,23.28
2023-04-17T04:14:43.521Z,23.29
2023-04-17T04:15:43.568Z,23.28
2023-04-17T04:16:43.516Z,23.28
2023-04-17T04:17:43.590Z,23.26
2023-04-17T04:18:43.518Z,23.26
2023-04-17T04:19:43.500Z,23.28
2023-04-17T04:20:43.508Z,23.29
2023-04-17T04:21:43.517Z,23.30
2023-04-17T04:22:43.492Z,23.29
2023-04-17T04:23:43.505Z,23.31
2023-04-17T04:24:43.489Z,23.29
2023-04-17T04:25:43.477Z,23.31
2023-04-17T04:26:43.448Z,23.31
2023-04-17T04:27:43.450Z,23.35
2023-04-17T04:28:43.455Z,23.31
2023-04-17T04:29:43.414Z,23.34
2023-04-17T04:30:43.435Z,23.38
2023-04-17T04:31:43.465Z,23.34
2023-04-17T04:32:43.429Z,23.32
2023-04-17T04:33:43.430Z,23.34
2023-04-17T04:34:43.387Z,23.27
2023-04-17T04:35:43.378Z,23.38
2023-04-17T04:36:43.366Z,23.34
2023-04-17T04:37:43.379Z,23.36
2023-04-17T04:38:43.397Z,23.35
2023-04-17T04:39:43.468Z,23.32
2023-04-17T04:40:43.345Z,23.31
2023-04-17T04:41:43.331Z,23.32
2023-04-17T04:42:43.317Z,23.31
2023-04-17T04:43:43.340Z,23.31
2023-04-17T04:44:43.315Z,23.34
2023-04-17T04:45:43.314Z,23.34
2023-04-17T04:46:43.375Z,23.34
2023-04-17T04:47:43.399Z,23.32
2023-04-17T04:48:43.306Z,23.26
2023-04-17T04:49:43.383Z,23.29
2023-04-17T04:50:43.262Z,23.28
2023-04-17T04:51:43.268Z,23.32
2023-04-17T04:52:43.284Z,23.32
2023-04-17T04:53:43.267Z,23.37
2023-04-17T04:54:43.259Z,23.38
2023-04-17T04:55:43.258Z,23.34
2023-04-17T04:56:43.247Z,23.31
2023-04-17T04:57:43.243Z,23.32
2023-04-17T04:58:43.262Z,23.31
2023-04-17T04:59:43.235Z,23.29
2023-04-17T05:00:43.302Z,23.34
2023-04-17T05:01:50.218Z,23.31
2023-04-17T05:02:43.265Z,23.26
2023-04-17T05:03:43.268Z,23.25
2023-04-17T05:04:43.185Z,23.22
2023-04-17T05:05:43.171Z,23.14
2023-04-17T05:06:43.196Z,23.13
2023-04-17T05:07:43.167Z,23.10
2023-04-17T05:08:43.172Z,23.05
2023-04-17T05:09:43.141Z,23.09
2023-04-17T05:10:43.145Z,23.04
2023-04-17T05:11:43.128Z,23.03
2023-04-17T05:12:43.132Z,23.01
2023-04-17T05:13:43.151Z,22.93
2023-04-17T05:14:43.119Z,23.03
2023-04-17T05:15:43.139Z,22.94
2023-04-17T05:16:43.173Z,22.95
2023-04-17T05:17:43.122Z,22.94
2023-04-17T05:18:43.087Z,22.94
2023-04-17T05:19:43.085Z,22.96
2023-04-17T05:20:43.062Z,22.91
2023-04-17T05:21:43.055Z,22.89
2023-04-17T05:22:43.076Z,22.88
2023-04-17T05:23:43.080Z,22.85
2023-04-17T05:24:43.061Z,22.89
2023-04-17T05:25:43.095Z,22.87
2023-04-17T05:26:43.031Z,22.87
2023-04-17T05:27:43.028Z,22.91
2023-04-17T05:28:43.045Z,22.87
2023-04-17T05:29:43.004Z,22.88
2023-04-17T05:30:43.022Z,22.88
2023-04-17T05:31:43.058Z,22.88
2023-04-17T05:32:43.103Z,23.00
2023-04-17T05:33:43.490Z,22.99
2023-04-17T05:34:43.036Z,23.06
2023-04-17T05:35:43.097Z,23.34
2023-04-17T05:36:43.191Z,23.91
2023-04-17T05:37:43.189Z,24.03
2023-04-17T05:38:45.530Z,23.74
2023-04-17T05:39:43.261Z,24.14
2023-04-17T05:40:43.239Z,24.42
2023-04-17T05:41:43.247Z,24.58
2023-04-17T05:42:43.275Z,24.78
2023-04-17T05:43:43.521Z,24.80
2023-04-17T05:44:43.214Z,24.87
2023-04-17T05:45:43.268Z,25.32
2023-04-17T05:46:50.208Z,25.30
2023-04-17T05:47:43.173Z,25.61
2023-04-17T05:48:43.512Z,25.87
2023-04-17T05:49:43.155Z,25.91
2023-04-17T05:50:43.142Z,26.27
2023-04-17T05:51:43.170Z,26.32
2023-04-17T05:52:43.120Z,26.55
2023-04-17T05:53:43.122Z,26.48
2023-04-17T05:54:43.142Z,26.64
2023-04-17T05:55:43.109Z,26.58
2023-04-17T05:56:43.148Z,26.73
2023-04-17T05:57:43.197Z,26.90
2023-04-17T05:58:43.086Z,26.90
2023-04-17T05:59:43.185Z,26.88
2023-04-17T06:00:44.111Z,27.12
2023-04-17T06:01:43.072Z,27.30
2023-04-17T06:02:43.354Z,27.34
2023-04-17T06:03:43.432Z,27.47
2023-04-17T06:04:43.808Z,27.52
2023-04-17T06:05:43.107Z,27.57
2023-04-17T06:06:43.078Z,27.65
2023-04-17T06:07:43.053Z,27.83
2023-04-17T06:08:43.043Z,27.77
2023-04-17T06:09:43.075Z,27.88
2023-04-17T06:10:43.182Z,27.85
2023-04-17T06:11:43.047Z,27.98
2023-04-17T06:12:43.014Z,27.98
2023-04-17T06:13:43.064Z,27.93
2023-04-17T06:14:43.019Z,28.04
2023-04-17T06:15:42.988Z,28.12
2023-04-17T06:16:43.010Z,28.19
2023-04-17T06:17:43.005Z,28.20
2023-04-17T06:18:42.995Z,28.30
2023-04-17T06:19:43.004Z,28.38
2023-04-17T06:20:43.023Z,28.41
2023-04-17T06:21:43.085Z,28.48
2023-04-17T06:22:43.123Z,28.52
2023-04-17T06:23:43.171Z,28.47
2023-04-17T06:24:43.261Z,28.45
2023-04-17T06:25:43.339Z,28.57
2023-04-17T06:26:43.348Z,28.73
2023-04-17T06:27:43.398Z,28.65
2023-04-17T06:28:43.468Z,28.57
2023-04-17T06:29:43.520Z,28.53
2023-04-17T06:30:43.660Z,28.71
2023-04-17T06:31:43.667Z,28.67
2023-04-17T06:32:43.759Z,28.61
2023-04-17T06:33:43.738Z,28.62
2023-04-17T06:34:56.331Z,28.66
2023-04-17T06:35:44.840Z,28.75
2023-04-17T06:36:43.806Z,28.60
2023-04-17T06:37:43.819Z,28.45
2023-04-17T06:38:43.784Z,28.36
2023-04-17T06:39:44.058Z,27.96
2023-04-17T06:40:43.809Z,27.69
2023-04-17T06:41:43.886Z,27.56
2023-04-17T06:42:43.891Z,26.98
2023-04-17T06:43:43.896Z,27.14
2023-04-17T06:44:43.950Z,26.97
2023-04-17T06:45:43.893Z,26.63
2023-04-17T06:46:43.983Z,26.20
2023-04-17T06:47:43.928Z,26.26
2023-04-17T06:48:43.936Z,25.69
2023-04-17T06:49:43.931Z,25.94
2023-04-17T06:50:43.929Z,25.68
2023-04-17T06:51:43.928Z,25.65
2023-04-17T06:52:43.945Z,25.55
2023-04-17T06:53:43.913Z,25.34
2023-04-17T06:54:43.958Z,25.18
2023-04-17T06:55:43.961Z,25.30
2023-04-17T06:56:43.929Z,25.36
2023-04-17T06:57:43.974Z,24.97
2023-04-17T06:58:44.973Z,25.17
2023-04-17T06:59:44.100Z,24.98
2023-04-17T07:00:43.944Z,24.92
2023-04-17T07:01:44.021Z,24.65
2023-04-17T07:02:44.099Z,24.65
2023-04-17T07:03:44.264Z,24.85
2023-04-17T07:04:44.090Z,24.84
2023-04-17T07:05:44.104Z,24.83
2023-04-17T07:06:44.560Z,24.53
2023-04-17T07:07:44.008Z,24.78
2023-04-17T07:08:44.012Z,24.75
2023-04-17T07:09:44.061Z,24.62
2023-04-17T07:10:44.061Z,24.78
2023-04-17T07:11:44.058Z,24.59
2023-04-17T07:12:44.073Z,24.40
2023-04-17T07:13:44.073Z,24.35
2023-04-17T07:14:44.092Z,24.48
2023-04-17T07:15:44.175Z,24.56
2023-04-17T07:16:44.094Z,24.51
2023-04-17T07:17:44.120Z,24.60
2023-04-17T07:18:44.070Z,24.53
2023-04-17T07:19:44.070Z,24.48
2023-04-17T07:20:44.066Z,24.34
2023-04-17T07:21:44.085Z,24.48
2023-04-17T07:22:44.063Z,24.39
2023-04-17T07:23:44.089Z,24.27
2023-04-17T07:24:44.098Z,24.40
2023-04-17T07:25:44.076Z,24.41
2023-04-17T07:26:44.108Z,24.71
2023-04-17T07:27:44.123Z,24.58
2023-04-17T07:28:44.145Z,24.54
2023-04-17T07:29:44.136Z,24.63
2023-04-17T07:30:44.134Z,24.82
2023-04-17T07:31:44.187Z,24.72
2023-04-17T07:32:44.190Z,24.85
2023-04-17T07:33:44.160Z,24.69
2023-04-17T07:34:44.161Z,24.50
2023-04-17T07:35:44.240Z,24.62
2023-04-17T07:36:44.164Z,24.30
2023-04-17T07:37:44.196Z,24.25
2023-04-17T07:38:44.245Z,24.28
2023-04-17T07:39:44.250Z,24.57
2023-04-17T07:40:44.251Z,24.64
2023-04-17T07:41:44.317Z,24.13
2023-04-17T07:42:45.085Z,24.08
2023-04-17T07:43:44.497Z,25.08
2023-04-17T07:44:44.533Z,24.59
2023-04-17T07:45:44.568Z,24.77
2023-04-17T07:46:44.851Z,24.60
2023-04-17T07:47:44.737Z,24.89
2023-04-17T07:48:44.722Z,24.49
2023-04-17T07:49:44.773Z,24.51
2023-04-17T07:50:44.845Z,24.56
2023-04-17T07:51:44.878Z,24.33
2023-04-17T07:52:44.978Z,24.46
2023-04-17T07:53:45.016Z,24.68
2023-04-17T07:54:45.014Z,24.30
2023-04-17T07:55:45.047Z,24.21
2023-04-17T07:56:45.131Z,24.33
2023-04-17T07:57:45.143Z,24.53
2023-04-17T07:58:45.226Z,24.30
2023-04-17T07:59:45.258Z,24.25
2023-04-17T08:00:45.264Z,24.39
2023-04-17T08:01:45.297Z,24.33
2023-04-17T08:02:45.478Z,24.02
2023-04-17T08:03:45.594Z,24.04
2023-04-17T08:04:45.517Z,24.12
2023-04-17T08:05:45.463Z,24.05
2023-04-17T08:06:45.456Z,23.90
2023-04-17T08:07:45.488Z,23.97
2023-04-17T08:08:45.579Z,24.11
2023-04-17T08:09:45.608Z,23.86
2023-04-17T08:10:45.637Z,24.06
2023-04-17T08:11:56.199Z,24.14
2023-04-17T08:12:46.670Z,24.42
2023-04-17T08:13:45.670Z,24.32
2023-04-17T08:14:45.653Z,24.35
2023-04-17T08:15:45.656Z,23.90
2023-04-17T08:16:45.686Z,24.01
2023-04-17T08:17:45.707Z,23.88
2023-04-17T08:18:45.660Z,24.03
2023-04-17T08:19:45.613Z,23.99
2023-04-17T08:20:45.609Z,24.14
2023-04-17T08:21:45.611Z,23.90
2023-04-17T08:22:45.575Z,23.80
2023-04-17T08:23:45.589Z,24.19
2023-04-17T08:24:45.591Z,24.22
2023-04-17T08:25:45.585Z,24.26
2023-04-17T08:26:45.606Z,24.30
2023-04-17T08:27:45.547Z,24.38
2023-04-17T08:28:45.563Z,24.26
2023-04-17T08:29:45.571Z,24.26
2023-04-17T08:30:45.573Z,24.31
2023-04-17T08:31:45.541Z,23.96
2023-04-17T08:32:45.677Z,24.24
2023-04-17T08:33:45.561Z,23.92
2023-04-17T08:34:45.601Z,22.99
2023-04-17T08:35:46.118Z,23.05
2023-04-17T08:36:45.665Z,22.96
2023-04-17T08:37:45.723Z,23.36
2023-04-17T08:38:45.719Z,23.31
2023-04-17T08:39:45.757Z,23.51
2023-04-17T08:40:46.108Z,22.91
2023-04-17T08:41:45.807Z,22.92
2023-04-17T08:42:45.837Z,22.61
2023-04-17T08:43:45.878Z,23.24
2023-04-17T08:44:45.969Z,23.98
2023-04-17T08:45:45.905Z,23.43
2023-04-17T08:46:45.985Z,23.88
2023-04-17T08:47:46.000Z,24.76
2023-04-17T08:48:46.018Z,24.57
2023-04-17T08:49:46.015Z,24.49
2023-04-17T08:50:46.116Z,24.94
2023-04-17T08:51:46.064Z,25.18
2023-04-17T08:52:46.086Z,25.47
2023-04-17T08:53:46.115Z,25.82
2023-04-17T08:54:46.574Z,26.15
2023-04-17T08:55:46.211Z,26.34
2023-04-17T08:56:46.228Z,26.55
2023-04-17T08:57:46.188Z,26.76
2023-04-17T08:58:46.278Z,26.65
2023-04-17T08:59:46.287Z,26.53
2023-04-17T09:00:46.351Z,26.45
2023-04-17T09:01:46.392Z,26.41
2023-04-17T09:02:46.596Z,26.36
2023-04-17T09:03:46.686Z,26.44
2023-04-17T09:04:47.445Z,26.29
2023-04-17T09:05:47.768Z,26.43
2023-04-17T09:06:46.767Z,26.50
2023-04-17T09:07:46.761Z,26.55
2023-04-17T09:08:46.785Z,26.39
2023-04-17T09:09:46.714Z,26.44
2023-04-17T09:10:47.140Z,26.37
2023-04-17T09:11:46.830Z,26.26
2023-04-17T09:12:46.885Z,26.23
2023-04-17T09:13:46.898Z,26.11
2023-04-17T09:14:46.992Z,26.18
2023-04-17T09:15:47.145Z,26.13
2023-04-17T09:16:47.023Z,26.12
2023-04-17T09:17:47.108Z,26.11
2023-04-17T09:18:47.140Z,26.08
2023-04-17T09:19:47.220Z,26.03
2023-04-17T09:20:47.628Z,25.85
2023-04-17T09:21:47.362Z,25.90
2023-04-17T09:22:47.356Z,25.85
2023-04-17T09:23:47.399Z,25.66
2023-04-17T09:24:47.541Z,25.68
2023-04-17T09:25:47.507Z,25.62
2023-04-17T09:26:47.568Z,25.26
2023-04-17T09:27:47.660Z,25.63
2023-04-17T09:28:47.656Z,25.57
2023-04-17T09:29:47.732Z,25.47
2023-04-17T09:30:47.743Z,25.52
2023-04-17T09:31:47.925Z,25.52
2023-04-17T09:32:47.880Z,25.24
2023-04-17T09:33:47.884Z,25.42
2023-04-17T09:34:47.960Z,25.46
2023-04-17T09:35:48.031Z,25.30
2023-04-17T09:36:48.045Z,25.41
2023-04-17T09:37:48.066Z,25.39
2023-04-17T09:38:48.114Z,25.42
2023-04-17T09:39:48.178Z,25.36
2023-04-17T09:40:48.633Z,25.47
2023-04-17T09:41:48.228Z,25.28
2023-04-17T09:42:48.270Z,25.48
2023-04-17T09:43:48.341Z,25.02
2023-04-17T09:44:48.368Z,24.67
2023-04-17T09:45:48.421Z,24.86
2023-04-17T09:46:48.500Z,24.71
2023-04-17T09:47:48.543Z,25.02
2023-04-17T09:48:48.592Z,24.91
2023-04-17T09:49:48.720Z,25.06
2023-04-17T09:50:48.680Z,25.23
2023-04-17T09:51:48.749Z,24.62
2023-04-17T09:52:48.907Z,24.58
2023-04-17T09:53:48.875Z,24.20
2023-04-17T09:54:48.914Z,24.52
2023-04-17T09:55:49.204Z,24.79
2023-04-17T09:56:49.072Z,25.01
2023-04-17T09:57:49.099Z,25.17
2023-04-17T09:58:49.191Z,25.35
2023-04-17T09:59:49.357Z,25.46
2023-04-17T10:00:49.423Z,25.49
2023-04-17T10:01:49.331Z,25.46
2023-04-17T10:02:49.546Z,25.68
2023-04-17T10:03:49.479Z,25.75
2023-04-17T10:04:49.446Z,25.83
2023-04-17T10:05:49.658Z,25.77
2023-04-17T10:06:49.534Z,25.83
2023-04-17T10:07:49.572Z,25.83
2023-04-17T10:08:49.539Z,25.88
2023-04-17T10:09:49.639Z,25.86
2023-04-17T10:10:49.620Z,25.89
2023-04-17T10:11:49.629Z,25.88
2023-04-17T10:12:49.645Z,25.92
2023-04-17T10:13:49.761Z,25.94
2023-04-17T10:14:50.040Z,25.97
2023-04-17T10:15:49.736Z,25.94
2023-04-17T10:16:50.420Z,25.93
2023-04-17T10:17:49.876Z,26.05
2023-04-17T10:18:49.791Z,26.05
2023-04-17T10:19:49.800Z,26.01
2023-04-17T10:20:49.797Z,26.06
2023-04-17T10:21:49.792Z,26.11
2023-04-17T10:22:49.841Z,26.09
2023-04-17T10:23:49.888Z,26.09
2023-04-17T10:24:49.856Z,26.19
2023-04-17T10:25:49.945Z,26.24
2023-04-17T10:26:49.906Z,26.19
2023-04-17T10:27:49.909Z,25.98
2023-04-17T10:28:49.942Z,26.14
2023-04-17T10:29:49.929Z,26.29
2023-04-17T10:30:49.938Z,26.34
2023-04-17T10:31:50.198Z,26.23
2023-04-17T10:32:50.056Z,26.29
2023-04-17T10:33:49.972Z,26.34
2023-04-17T10:34:49.984Z,26.39
2023-04-17T10:35:50.422Z,26.38
2023-04-17T10:36:49.989Z,26.32
2023-04-17T10:37:50.008Z,25.99
2023-04-17T10:38:49.983Z,24.81
2023-04-17T10:39:50.048Z,24.45
2023-04-17T10:40:50.093Z,24.15
2023-04-17T10:41:50.670Z,24.35
2023-04-17T10:42:50.170Z,23.86
2023-04-17T10:43:50.139Z,23.87
2023-04-17T10:44:50.248Z,24.20
2023-04-17T10:45:50.248Z,24.37
2023-04-17T10:46:50.672Z,24.78
2023-04-17T10:47:50.321Z,24.73
2023-04-17T10:48:50.321Z,24.83
2023-04-17T10:49:50.323Z,24.86
2023-04-17T10:50:50.328Z,24.90
2023-04-17T10:51:50.292Z,24.93
2023-04-17T10:52:50.327Z,24.89
2023-04-17T10:53:50.337Z,24.86
2023-04-17T10:54:50.327Z,24.84
2023-04-17T10:55:50.428Z,24.77
2023-04-17T10:56:50.359Z,24.83
2023-04-17T10:57:50.425Z,24.83
2023-04-17T10:58:50.492Z,24.79
2023-04-17T10:59:50.492Z,24.77
2023-04-17T11:00:50.740Z,24.78
2023-04-17T11:01:50.845Z,24.77
2023-04-17T11:02:50.772Z,24.74
2023-04-17T11:03:50.700Z,24.76
2023-04-17T11:04:50.811Z,24.73
2023-04-17T11:05:50.845Z,24.73
2023-04-17T11:06:50.901Z,24.73
2023-04-17T11:07:50.966Z,24.69
2023-04-17T11:08:50.953Z,24.70
2023-04-17T11:09:51.009Z,24.67
2023-04-17T11:10:51.006Z,24.72
2023-04-17T11:11:51.081Z,24.63
2023-04-17T11:12:51.144Z,24.57
2023-04-17T11:13:51.177Z,24.57
2023-04-17T11:14:51.252Z,24.56
2023-04-17T11:15:51.309Z,24.55
2023-04-17T11:16:51.426Z,24.55
2023-04-17T11:17:51.461Z,24.53
2023-04-17T11:18:51.493Z,24.47
2023-04-17T11:19:51.544Z,24.46
2023-04-17T11:20:51.636Z,24.46
2023-04-17T11:21:52.740Z,24.43
2023-04-17T11:22:51.767Z,24.44
2023-04-17T11:23:51.806Z,24.40
2023-04-17T11:24:51.873Z,24.43
2023-04-17T11:25:51.919Z,24.37
2023-04-17T11:26:52.202Z,24.34
2023-04-17T11:27:52.074Z,24.36
2023-04-17T11:28:52.112Z,24.40
2023-04-17T11:29:52.152Z,24.41
2023-04-17T11:30:52.199Z,24.75
2023-04-17T11:31:52.285Z,24.82
2023-04-17T11:32:52.235Z,24.85
2023-04-17T11:33:52.223Z,24.79
2023-04-17T11:34:52.185Z,24.66
2023-04-17T11:35:52.178Z,24.72
2023-04-17T11:36:52.672Z,24.72
2023-04-17T11:37:52.182Z,24.67
2023-04-17T11:38:53.915Z,24.67
2023-04-17T11:39:52.175Z,24.66
2023-04-17T11:40:52.185Z,24.66
2023-04-17T11:41:52.199Z,24.64
2023-04-17T11:42:52.163Z,24.58
2023-04-17T11:43:52.137Z,24.46
2023-04-17T11:44:52.168Z,24.55
2023-04-17T11:45:52.148Z,24.54
2023-04-17T11:46:52.118Z,24.55
2023-04-17T11:47:52.196Z,24.51
2023-04-17T11:48:52.137Z,24.45
2023-04-17T11:49:52.092Z,24.40
2023-04-17T11:50:52.063Z,24.40
2023-04-17T11:51:52.074Z,24.38
2023-04-17T11:52:52.061Z,24.38
2023-04-17T11:53:52.062Z,24.34
2023-04-17T11:54:52.055Z,24.30
2023-04-17T11:55:52.046Z,24.30
2023-04-17T11:56:52.048Z,24.25
2023-04-17T11:57:52.018Z,24.27
2023-04-17T11:58:52.045Z,24.28
2023-04-17T11:59:52.030Z,24.24
2023-04-17T12:00:52.006Z,24.24
2023-04-17T12:01:52.041Z,24.22
2023-04-17T12:02:52.128Z,24.25
2023-04-17T12:03:52.107Z,24.18
2023-04-17T12:04:52.099Z,24.16
2023-04-17T12:05:51.983Z,24.10
2023-04-17T12:06:51.951Z,24.13
2023-04-17T12:07:51.979Z,24.05
2023-04-17T12:08:51.964Z,24.05
2023-04-17T12:09:51.966Z,24.04
2023-04-17T12:10:51.946Z,24.02
2023-04-17T12:11:51.980Z,23.97
2023-04-17T12:12:51.947Z,24.07
2023-04-17T12:13:51.953Z,24.10
2023-04-17T12:14:51.904Z,23.99
2023-04-17T12:15:51.920Z,23.98
2023-04-17T12:16:51.946Z,23.98
2023-04-17T12:17:51.958Z,24.02
2023-04-17T12:18:51.917Z,23.95
2023-04-17T12:19:51.901Z,23.98
2023-04-17T12:20:51.897Z,23.94
2023-04-17T12:21:51.866Z,23.91
2023-04-17T12:22:51.894Z,23.88
2023-04-17T12:23:51.924Z,23.89
2023-04-17T12:24:51.973Z,23.85
2023-04-17T12:25:52.044Z,23.89
2023-04-17T12:26:52.085Z,23.98
2023-04-17T12:27:52.186Z,24.01
2023-04-17T12:28:52.236Z,23.95
2023-04-17T12:29:52.298Z,23.86
2023-04-17T12:30:52.313Z,23.92
2023-04-17T12:31:52.444Z,23.89
2023-04-17T12:32:52.517Z,23.89
2023-04-17T12:33:52.546Z,23.86
2023-04-17T12:34:52.590Z,23.81
2023-04-17T12:35:52.739Z,23.81
2023-04-17T12:36:52.680Z,23.82
2023-04-17T12:37:52.766Z,23.72
2023-04-17T12:38:52.778Z,23.60
2023-04-17T12:39:52.776Z,23.68
2023-04-17T12:40:52.790Z,23.98
2023-04-17T12:41:52.805Z,25.58
2023-04-17T12:42:52.814Z,28.31
2023-04-17T12:43:52.812Z,28.03
2023-04-17T12:44:52.892Z,27.97
2023-04-17T12:45:52.928Z,28.21
2023-04-17T12:46:52.901Z,29.18
2023-04-17T12:47:52.935Z,27.98
2023-04-17T12:48:52.905Z,27.35
2023-04-17T12:49:52.926Z,27.49
2023-04-17T12:50:52.924Z,27.46
2023-04-17T12:51:52.944Z,27.69
2023-04-17T12:52:52.933Z,27.49